Time;durP1;ratioP1;P1;durP2;ratioP2;P2;SDS_P1;SDS_P2;PMS_P1;PMS_P2;Temp;Humidity;BMP_temperature;BMP_pressure;BME280_temperature;BME280_humidity;BME280_pressure;Samples;Min_cycle;Max_cycle;Signal;HPM_P1;HPM_P2
2021/10/05 00:01:49;;;;;;;13.77;6.00;;;;;;;15.53;49.16;100520.31;5050235;28;20036;-45
2021/10/05 00:04:15;;;;;;;14.88;5.97;;;;;;;15.49;49.83;100516.44;5050846;28;20033;-47
2021/10/05 00:06:40;;;;;;;15.70;6.15;;;;;;;15.49;49.12;100527.16;5069928;28;20066;-46
2021/10/05 00:09:06;;;;;;;10.90;6.28;;;;;;;15.54;49.32;100516.59;5070444;28;20460;-46
2021/10/05 00:11:31;;;;;;;9.90;5.50;;;;;;;15.39;49.78;100519.59;5052748;28;20029;-47
2021/10/05 00:13:57;;;;;;;9.32;5.90;;;;;;;15.14;50.99;100516.03;5050461;28;20040;-47
2021/10/05 00:16:22;;;;;;;13.13;6.00;;;;;;;15.08;50.44;100519.56;5050588;28;20032;-47
2021/10/05 00:18:49;;;;;;;11.23;6.20;;;;;;;14.92;51.01;100518.19;5049552;28;20103;-48
2021/10/05 00:21:15;;;;;;;12.60;7.90;;;;;;;14.76;51.86;100516.84;5050439;28;20492;-48
2021/10/05 00:23:41;;;;;;;19.45;8.15;;;;;;;14.93;51.04;100519.84;5049629;28;20028;-49
2021/10/05 00:26:06;;;;;;;18.30;6.85;;;;;;;14.85;50.88;100523.59;5050703;28;20024;-49
2021/10/05 00:28:32;;;;;;;15.02;6.28;;;;;;;14.97;51.00;100521.88;5048995;28;20021;-48
2021/10/05 00:30:57;;;;;;;14.15;6.80;;;;;;;14.79;51.42;100514.56;5050196;28;20049;-47
2021/10/05 00:33:22;;;;;;;14.45;6.10;;;;;;;14.69;51.46;100516.03;5050627;28;20017;-47
2021/10/05 00:35:48;;;;;;;14.57;6.10;;;;;;;14.92;50.80;100510.97;5050648;28;20029;-47
2021/10/05 00:38:13;;;;;;;12.05;6.28;;;;;;;14.73;52.03;100501.16;5050218;28;20583;-48
2021/10/05 00:40:39;;;;;;;10.93;5.80;;;;;;;14.63;51.51;100515.03;5050288;28;20021;-47
2021/10/05 00:43:05;;;;;;;12.90;5.68;;;;;;;14.45;52.45;100518.34;5050510;28;20013;-47
2021/10/05 00:45:30;;;;;;;13.05;5.97;;;;;;;14.60;52.33;100513.59;5050468;28;20457;-48
2021/10/05 00:47:56;;;;;;;9.25;5.68;;;;;;;14.63;52.17;100518.50;5050205;28;20123;-48
2021/10/05 00:50:21;;;;;;;14.27;5.93;;;;;;;14.66;51.16;100511.94;5049554;28;20021;-50
2021/10/05 00:52:47;;;;;;;11.48;5.97;;;;;;;14.81;51.07;100506.28;5048513;28;20028;-49
2021/10/05 00:55:13;;;;;;;8.32;5.93;;;;;;;14.80;50.54;100504.66;5049788;28;20055;-48
2021/10/05 00:57:39;;;;;;;10.77;6.15;;;;;;;14.45;50.84;100508.44;5050133;28;20028;-47
2021/10/05 01:00:05;;;;;;;13.13;6.60;;;;;;;14.25;51.40;100505.81;5049920;28;20451;-51
2021/10/05 01:02:31;;;;;;;10.50;6.28;;;;;;;14.04;52.31;100506.88;5049500;28;20461;-48
2021/10/05 01:04:56;;;;;;;14.80;6.15;;;;;;;14.22;51.76;100503.56;5049801;28;20095;-47
2021/10/05 01:07:22;;;;;;;13.52;6.50;;;;;;;14.08;51.98;100500.06;5049480;28;20680;-47
2021/10/05 01:09:47;;;;;;;11.77;6.57;;;;;;;14.11;51.95;100496.16;5049794;28;20017;-47
2021/10/05 01:12:13;;;;;;;11.88;6.57;;;;;;;14.00;52.90;100500.28;5031991;28;20409;-47
2021/10/05 01:14:38;;;;;;;13.63;6.80;;;;;;;13.92;53.10;100503.19;5032275;28;20025;-48
2021/10/05 01:17:05;;;;;;;11.48;6.72;;;;;;;14.17;52.16;100503.38;5032598;28;20098;-48
2021/10/05 01:19:30;;;;;;;11.25;6.40;;;;;;;14.35;52.42;100497.34;5050078;28;20044;-48
2021/10/05 01:21:56;;;;;;;13.20;6.60;;;;;;;14.41;52.13;100496.53;5049542;28;20025;-48
2021/10/05 01:24:22;;;;;;;11.05;6.45;;;;;;;14.42;51.76;100506.19;5049505;28;20074;-48
2021/10/05 01:26:47;;;;;;;12.18;6.97;;;;;;;14.41;51.83;100504.56;5049672;28;20086;-50
2021/10/05 01:29:15;;;;;;;12.70;7.20;;;;;;;14.35;51.73;100494.66;5049462;28;20037;-48
2021/10/05 01:31:42;;;;;;;10.25;6.68;;;;;;;14.46;51.25;100496.69;5049781;28;20025;-47
2021/10/05 01:34:07;;;;;;;15.05;7.43;;;;;;;14.41;52.01;100495.69;5049983;28;20024;-50
2021/10/05 01:36:34;;;;;;;13.73;6.80;;;;;;;14.18;52.72;100496.97;5052800;28;20025;-48
2021/10/05 01:39:03;;;;;;;11.27;7.20;;;;;;;14.18;52.01;100501.50;5053236;28;20408;-47
2021/10/05 01:41:29;;;;;;;12.73;7.07;;;;;;;14.21;51.95;100488.53;5053168;28;20031;-47
2021/10/05 01:43:54;;;;;;;12.20;7.45;;;;;;;14.10;51.99;100493.69;5053082;28;20029;-48
2021/10/05 01:46:20;;;;;;;12.50;7.38;;;;;;;14.10;52.30;100494.50;5052977;28;20029;-48
2021/10/05 01:48:46;;;;;;;12.20;7.85;;;;;;;14.04;52.32;100493.50;5051395;28;20029;-47
2021/10/05 01:51:11;;;;;;;13.65;8.20;;;;;;;14.07;52.21;100490.41;5052637;28;20096;-50
2021/10/05 01:53:37;;;;;;;17.15;7.80;;;;;;;13.88;52.36;100496.63;5052588;28;20044;-50
2021/10/05 01:56:04;;;;;;;16.52;8.43;;;;;;;13.82;52.45;100487.56;5052944;28;20032;-51
2021/10/05 01:58:29;;;;;;;17.65;8.32;;;;;;;13.74;52.88;100492.28;5052505;28;20029;-48
2021/10/05 02:00:55;;;;;;;14.65;7.95;;;;;;;13.51;53.19;100484.66;5052530;28;20399;-50
2021/10/05 02:03:20;;;;;;;16.10;7.68;;;;;;;13.43;53.33;100497.19;5052009;28;20025;-51
2021/10/05 02:05:46;;;;;;;12.80;8.00;;;;;;;13.64;52.94;100495.38;5064223;28;20025;-48
2021/10/05 02:08:11;;;;;;;13.45;7.80;;;;;;;13.57;53.65;100491.84;5072828;28;20025;-51
2021/10/05 02:10:37;;;;;;;14.60;8.57;;;;;;;13.65;53.13;100499.66;5072424;28;20512;-51
2021/10/05 02:13:03;;;;;;;13.82;9.02;;;;;;;13.74;52.86;100497.63;5072661;28;20020;-49
2021/10/05 02:15:28;;;;;;;16.23;9.38;;;;;;;13.72;53.04;100503.19;5072737;28;20017;-48
2021/10/05 02:17:54;;;;;;;17.48;10.13;;;;;;;13.69;53.34;100500.94;5072366;28;20035;-48
2021/10/05 02:20:19;;;;;;;16.20;10.73;;;;;;;13.61;53.24;100501.97;5072678;28;20028;-47
2021/10/05 02:22:45;;;;;;;20.60;11.68;;;;;;;13.53;53.37;100495.97;5072453;28;20487;-49
2021/10/05 02:25:11;;;;;;;20.80;12.38;;;;;;;13.54;53.47;100503.81;5072977;28;20040;-48
2021/10/05 02:27:36;;;;;;;24.25;12.57;;;;;;;13.54;53.36;100500.31;5072929;28;20020;-49
2021/10/05 02:30:03;;;;;;;22.10;12.55;;;;;;;13.60;53.12;100496.81;5072718;28;20036;-49
2021/10/05 02:32:29;;;;;;;23.00;13.15;;;;;;;13.57;53.31;100500.69;5071344;28;20052;-47
2021/10/05 02:34:55;;;;;;;23.48;13.15;;;;;;;13.47;53.63;100502.97;5072680;28;20031;-49
2021/10/05 02:37:20;;;;;;;23.83;12.90;;;;;;;13.47;53.50;100500.28;5072854;28;20021;-47
2021/10/05 02:39:46;;;;;;;18.98;12.82;;;;;;;13.35;54.46;100500.06;5072215;28;20396;-50
2021/10/05 02:42:11;;;;;;;22.80;13.13;;;;;;;13.44;53.86;100498.00;5071978;28;20510;-47
2021/10/05 02:44:38;;;;;;;21.33;13.10;;;;;;;13.63;53.31;100501.72;5072097;28;20024;-48
2021/10/05 02:47:04;;;;;;;21.42;12.60;;;;;;;13.36;53.91;100503.56;5071738;28;20507;-47
2021/10/05 02:49:29;;;;;;;18.63;13.23;;;;;;;13.39;54.04;100503.97;5072107;28;20016;-47
2021/10/05 02:51:55;;;;;;;27.00;14.82;;;;;;;13.48;53.75;100504.63;5064470;28;20025;-48
2021/10/05 02:54:20;;;;;;;20.20;13.55;;;;;;;13.34;53.80;100505.63;5051985;28;20036;-48
2021/10/05 02:56:46;;;;;;;22.02;13.07;;;;;;;13.22;54.32;100508.84;5052308;28;20033;-48
2021/10/05 02:59:12;;;;;;;25.85;13.20;;;;;;;13.13;54.54;100518.06;5052088;28;20032;-47
2021/10/05 03:01:38;;;;;;;23.00;13.32;;;;;;;13.08;55.20;100507.19;5051789;28;20028;-50
2021/10/05 03:04:04;;;;;;;22.52;13.65;;;;;;;13.27;54.38;100506.41;5052064;28;20086;-47
2021/10/05 03:06:29;;;;;;;23.80;13.00;;;;;;;13.38;54.10;100515.69;5069794;28;20083;-47
2021/10/05 03:08:55;;;;;;;25.77;13.60;;;;;;;13.19;54.49;100511.91;5072102;28;20052;-48
2021/10/05 03:11:21;;;;;;;24.52;14.05;;;;;;;13.20;54.71;100512.75;5072293;28;20101;-48
2021/10/05 03:13:46;;;;;;;27.48;14.40;;;;;;;13.24;54.30;100509.47;5072219;28;20028;-49
2021/10/05 03:16:12;;;;;;;27.73;16.45;;;;;;;13.05;55.47;100504.91;5071867;28;20103;-48
2021/10/05 03:18:41;;;;;;;27.00;17.02;;;;;;;13.17;54.93;100508.63;5071738;28;20041;-47
2021/10/05 03:21:08;;;;;;;35.67;19.67;;;;;;;13.16;54.82;100508.84;5071549;28;20028;-48
2021/10/05 03:23:34;;;;;;;28.63;15.75;;;;;;;13.36;54.28;100506.22;5070617;28;20034;-48
2021/10/05 03:25:59;;;;;;;27.17;14.45;;;;;;;13.45;54.08;100507.69;5070756;28;20079;-47
2021/10/05 03:28:25;;;;;;;25.27;14.85;;;;;;;13.14;54.77;100514.38;5064038;28;20021;-48
2021/10/05 03:30:50;;;;;;;23.08;14.73;;;;;;;13.04;55.00;100514.78;5050062;28;20056;-48
2021/10/05 03:33:15;;;;;;;28.17;15.68;;;;;;;13.16;55.05;100517.69;5049366;28;20054;-49
2021/10/05 03:35:41;;;;;;;29.75;16.00;;;;;;;13.29;54.22;100520.38;5050203;28;20397;-48
2021/10/05 03:38:06;;;;;;;26.30;15.40;;;;;;;13.13;55.14;100523.41;5049862;28;20040;-48
2021/10/05 03:40:32;;;;;;;25.55;15.85;;;;;;;13.23;54.76;100518.53;5049721;28;20477;-48
2021/10/05 03:42:57;;;;;;;26.25;15.77;;;;;;;13.16;55.07;100516.88;5050070;28;20059;-48
2021/10/05 03:45:23;;;;;;;24.65;15.82;;;;;;;13.06;55.16;100520.75;5049956;28;20033;-50
2021/10/05 03:47:48;;;;;;;30.67;15.82;;;;;;;12.96;55.48;100514.94;5050529;28;20025;-49
2021/10/05 03:50:14;;;;;;;26.42;15.52;;;;;;;12.80;55.94;100520.63;5050354;28;20500;-51
2021/10/05 03:52:40;;;;;;;25.38;16.05;;;;;;;12.93;55.66;100523.38;5050131;28;20031;-50
2021/10/05 03:55:07;;;;;;;28.20;15.90;;;;;;;12.88;55.96;100523.13;5050611;28;20031;-48
2021/10/05 03:57:32;;;;;;;29.73;16.08;;;;;;;12.96;55.22;100520.28;5050275;28;20060;-51
2021/10/05 03:59:58;;;;;;;26.35;17.42;;;;;;;12.99;55.38;100524.41;5049477;28;20036;-51
2021/10/05 04:02:23;;;;;;;25.67;15.65;;;;;;;12.83;56.24;100510.38;5050042;28;20028;-50
2021/10/05 04:04:48;;;;;;;23.80;15.00;;;;;;;12.93;55.95;100523.38;5049719;28;20029;-48
2021/10/05 04:07:14;;;;;;;25.80;14.70;;;;;;;12.93;55.27;100522.53;5049481;28;20036;-45
2021/10/05 04:09:39;;;;;;;29.80;14.98;;;;;;;12.93;55.71;100531.38;5049695;28;20025;-47
2021/10/05 04:12:07;;;;;;;27.70;15.23;;;;;;;12.94;55.79;100534.88;5050033;28;20185;-47
2021/10/05 04:14:32;;;;;;;24.08;14.75;;;;;;;12.74;55.78;100537.44;5050358;28;20037;-47
2021/10/05 04:16:58;;;;;;;23.02;15.65;;;;;;;12.86;56.00;100538.53;5050150;28;20027;-47
2021/10/05 04:19:23;;;;;;;33.17;15.98;;;;;;;12.85;55.87;100536.88;5049926;28;20028;-50
2021/10/05 04:21:48;;;;;;;29.48;16.38;;;;;;;13.00;55.23;100536.72;5048169;28;20029;-48
2021/10/05 04:24:14;;;;;;;22.80;13.15;;;;;;;14.43;71.48;100537.31;5048994;28;20021;-47
2021/10/05 04:26:39;;;;;;;23.95;13.90;;;;;;;16.52;62.78;100538.47;5049585;28;20025;-48
2021/10/05 04:29:05;;;;;;;25.63;13.95;;;;;;;17.78;53.52;100534.13;5048905;28;20033;-49
2021/10/05 04:31:30;;;;;;;29.80;14.80;;;;;;;17.99;43.95;100523.88;5049126;28;20044;-47
2021/10/05 04:33:56;;;;;;;28.75;16.30;;;;;;;17.39;44.29;100532.88;5049135;28;20025;-49
2021/10/05 04:36:21;;;;;;;31.77;16.35;;;;;;;16.70;44.99;100543.06;5049043;28;20032;-47
2021/10/05 04:38:47;;;;;;;32.33;16.42;;;;;;;16.14;46.87;100534.09;5049020;28;20079;-48
2021/10/05 04:41:12;;;;;;;33.67;17.65;;;;;;;15.60;47.72;100537.19;5048940;28;20516;-49
2021/10/05 04:43:37;;;;;;;39.30;17.98;;;;;;;15.19;48.99;100532.28;5048384;28;20481;-47
2021/10/05 04:46:03;;;;;;;34.35;17.83;;;;;;;14.88;49.94;100531.19;5049045;28;20048;-49
2021/10/05 04:48:28;;;;;;;25.85;15.38;;;;;;;14.71;49.81;100548.78;5048067;28;20035;-48
2021/10/05 04:50:54;;;;;;;40.47;24.45;;;;;;;14.72;52.75;100548.59;5048739;28;20036;-48
2021/10/05 04:53:19;;;;;;;47.72;29.77;;;;;;;15.07;55.08;100550.09;5048233;28;20029;-49
2021/10/05 04:55:46;;;;;;;37.20;21.27;;;;;;;15.63;51.99;100552.03;5041558;28;20033;-49
2021/10/05 04:58:12;;;;;;;28.67;15.73;;;;;;;15.81;49.90;100548.63;5045871;28;20029;-51
2021/10/05 05:00:37;;;;;;;26.85;14.45;;;;;;;16.02;47.67;100552.81;5047979;28;20036;-47
2021/10/05 05:03:03;;;;;;;33.70;15.38;;;;;;;16.15;47.35;100554.56;5046616;28;20021;-48
2021/10/05 05:05:29;;;;;;;29.02;14.05;;;;;;;15.95;48.00;100534.06;5037906;28;20025;-37
2021/10/05 05:07:58;;;;;;;31.52;14.23;;;;;;;16.21;48.38;100565.22;5048839;28;20025;-48
2021/10/05 05:10:23;;;;;;;25.17;12.93;;;;;;;16.38;47.72;100564.66;5050563;28;20048;-47
2021/10/05 05:12:49;;;;;;;23.73;12.13;;;;;;;16.58;46.77;100569.81;5052398;28;20100;-49
2021/10/05 05:15:15;;;;;;;22.15;11.30;;;;;;;16.79;45.73;100568.56;5052042;28;20087;-47
2021/10/05 05:17:40;;;;;;;20.85;12.45;;;;;;;16.97;45.51;100568.59;5051548;28;20021;-48
2021/10/05 05:20:06;;;;;;;21.67;12.60;;;;;;;17.05;45.55;100566.66;5050575;28;20098;-48
2021/10/05 05:22:32;;;;;;;25.45;11.25;;;;;;;17.45;44.64;100566.09;5050353;28;20029;-48
2021/10/05 05:24:57;;;;;;;20.10;10.90;;;;;;;17.55;44.22;100571.75;5050195;28;20309;-47
2021/10/05 05:27:23;;;;;;;17.85;10.40;;;;;;;17.99;43.38;100569.66;5050683;28;20021;-50
2021/10/05 05:29:50;;;;;;;17.20;10.23;;;;;;;18.39;42.26;100579.75;5050481;28;20057;-49
2021/10/05 05:32:16;;;;;;;18.05;10.02;;;;;;;18.71;41.47;100569.38;5050060;28;20029;-48
2021/10/05 05:34:42;;;;;;;22.30;10.48;;;;;;;18.99;40.73;100575.94;5049215;28;20327;-46
2021/10/05 05:37:08;;;;;;;18.75;10.00;;;;;;;19.24;40.11;100572.09;5049998;28;20090;-50
2021/10/05 05:39:35;;;;;;;16.85;10.38;;;;;;;19.62;39.22;100581.44;5051390;28;20052;-48
2021/10/05 05:42:00;;;;;;;17.83;10.82;;;;;;;19.81;39.10;100579.38;5051502;28;20056;-51
2021/10/05 05:44:25;;;;;;;18.25;9.88;;;;;;;19.91;38.54;100583.06;5051632;28;20495;-48
2021/10/05 05:46:51;;;;;;;16.00;10.40;;;;;;;20.07;38.35;100578.72;5051359;28;20024;-47
2021/10/05 05:49:16;;;;;;;17.42;10.10;;;;;;;20.54;37.12;100585.59;5051501;28;20025;-48
2021/10/05 05:51:42;;;;;;;17.25;10.55;;;;;;;20.83;36.79;100580.09;5051410;28;20028;-49
2021/10/05 05:54:07;;;;;;;17.58;11.23;;;;;;;21.15;35.69;100592.91;5051216;28;20389;-47
2021/10/05 05:56:33;;;;;;;21.75;11.10;;;;;;;21.52;35.05;100598.47;5051219;28;20025;-47
2021/10/05 05:59:00;;;;;;;22.90;11.02;;;;;;;21.66;34.95;100569.09;5051008;28;20016;-49
2021/10/05 06:01:25;;;;;;;16.73;10.48;;;;;;;21.92;34.24;100593.69;5051767;28;20392;-47
2021/10/05 06:03:50;;;;;;;21.95;11.18;;;;;;;22.17;33.88;100601.22;5051240;28;20527;-47
2021/10/05 06:06:17;;;;;;;18.17;10.55;;;;;;;22.34;33.50;100601.91;5067631;28;20487;-48
2021/10/05 06:08:42;;;;;;;17.95;11.10;;;;;;;22.62;33.17;100592.59;5071326;28;20031;-47
2021/10/05 06:11:08;;;;;;;19.23;11.05;;;;;;;22.74;32.54;100588.84;5070847;28;20032;-49
2021/10/05 06:13:33;;;;;;;17.60;10.75;;;;;;;23.15;32.10;100597.16;5071194;28;20016;-47
2021/10/05 06:15:59;;;;;;;16.33;10.50;;;;;;;23.26;31.99;100595.31;5071134;28;20029;-48
2021/10/05 06:18:24;;;;;;;14.90;10.10;;;;;;;23.47;31.39;100607.03;5071409;28;20017;-47
2021/10/05 06:20:50;;;;;;;20.02;10.00;;;;;;;23.37;32.10;100603.22;5071070;28;20016;-47
2021/10/05 06:23:15;;;;;;;18.38;9.93;;;;;;;23.47;31.32;100609.75;5069891;28;20597;-46
2021/10/05 06:25:42;;;;;;;20.13;9.90;;;;;;;23.85;30.68;100613.09;5069572;28;20023;-46
2021/10/05 06:28:08;;;;;;;16.38;9.82;;;;;;;23.90;30.59;100613.91;5056544;28;20029;-46
2021/10/05 06:30:33;;;;;;;14.32;9.35;;;;;;;23.54;30.79;100611.13;5050736;28;20049;-47
2021/10/05 06:32:59;;;;;;;16.83;9.68;;;;;;;23.67;30.62;100612.50;5058628;28;20082;-48
2021/10/05 06:35:26;;;;;;;20.92;10.43;;;;;;;24.12;30.07;100605.50;5051205;28;20017;-49
2021/10/05 06:37:55;;;;;;;20.80;9.90;;;;;;;24.63;28.99;100618.22;5054149;28;20028;-47
2021/10/05 06:40:22;;;;;;;21.17;9.52;;;;;;;24.74;29.19;100616.28;5057948;28;20491;-48
2021/10/05 06:42:47;;;;;;;16.60;9.65;;;;;;;25.07;28.79;100630.31;5049417;28;20049;-47
2021/10/05 06:45:13;;;;;;;17.67;9.50;;;;;;;25.29;28.32;100630.78;5052184;28;20083;-47
2021/10/05 06:47:38;;;;;;;16.80;9.20;;;;;;;25.29;28.04;100622.63;5052819;28;20047;-50
2021/10/05 06:50:05;;;;;;;19.23;10.70;;;;;;;25.63;27.71;100619.16;5055364;28;20054;-46
2021/10/05 06:52:31;;;;;;;17.17;10.75;;;;;;;25.28;28.14;100612.81;5049940;28;20021;-48
2021/10/05 06:54:56;;;;;;;15.38;9.75;;;;;;;25.60;27.80;100619.72;5048212;28;20381;-48
2021/10/05 06:57:22;;;;;;;16.35;10.05;;;;;;;25.92;27.15;100623.88;5049756;28;20025;-46
2021/10/05 06:59:47;;;;;;;14.82;8.65;;;;;;;25.77;27.40;100624.78;5049808;28;20551;-47
2021/10/05 07:02:12;;;;;;;13.82;8.57;;;;;;;25.94;27.05;100627.94;5049927;28;20025;-47
2021/10/05 07:04:38;;;;;;;15.65;8.95;;;;;;;25.71;27.32;100628.63;5052445;28;20089;-46
2021/10/05 07:07:04;;;;;;;13.15;8.27;;;;;;;26.05;27.14;100625.94;5069653;28;20018;-50
2021/10/05 07:09:29;;;;;;;14.65;7.93;;;;;;;26.45;26.39;100634.06;5069465;28;20143;-46
2021/10/05 07:11:55;;;;;;;13.43;7.45;;;;;;;26.77;26.13;100630.75;5069701;28;20024;-49
2021/10/05 07:14:21;;;;;;;13.15;7.07;;;;;;;27.10;25.64;100623.50;5069587;28;20372;-46
2021/10/05 07:16:46;;;;;;;11.93;7.75;;;;;;;26.97;25.85;100628.84;5068751;28;20035;-49
2021/10/05 07:19:12;;;;;;;13.48;7.60;;;;;;;26.87;25.89;100619.69;5069812;28;20028;-46
2021/10/05 07:21:37;;;;;;;15.70;7.50;;;;;;;27.04;25.60;100629.31;5069480;28;20085;-48
2021/10/05 07:24:03;;;;;;;11.73;7.05;;;;;;;26.78;26.23;100628.81;5070224;28;20035;-47
2021/10/05 07:26:29;;;;;;;12.05;7.10;;;;;;;26.80;26.33;100621.13;5069834;28;20031;-46
2021/10/05 07:28:55;;;;;;;13.20;6.30;;;;;;;26.36;27.04;100614.75;5070006;28;20024;-46
2021/10/05 07:31:20;;;;;;;11.23;6.30;;;;;;;26.57;26.83;100618.09;5068624;28;20052;-49
2021/10/05 07:33:46;;;;;;;11.65;7.40;;;;;;;26.94;26.39;100621.25;5070081;28;20322;-46
2021/10/05 07:36:11;;;;;;;13.27;7.18;;;;;;;27.00;26.22;100615.44;5070044;28;20028;-47
2021/10/05 07:38:37;;;;;;;9.63;6.82;;;;;;;27.43;25.64;100623.63;5070009;28;20326;-47
2021/10/05 07:41:03;;;;;;;14.30;7.13;;;;;;;27.84;25.60;100616.75;5070016;28;20073;-48
2021/10/05 07:43:29;;;;;;;17.23;10.00;;;;;;;28.17;25.17;100617.56;5070355;28;20025;-48
2021/10/05 07:45:54;;;;;;;22.38;14.05;;;;;;;28.44;24.94;100619.56;5069289;28;20439;-47
2021/10/05 07:48:20;;;;;;;14.00;6.40;;;;;;;28.59;24.88;100614.91;5056337;28;20098;-49
2021/10/05 07:50:45;;;;;;;10.63;6.07;;;;;;;28.58;24.81;100619.59;5058303;28;20032;-47
2021/10/05 07:53:11;;;;;;;13.20;8.85;;;;;;;27.50;26.41;100607.66;5069407;28;20048;-48
2021/10/05 07:55:36;;;;;;;12.73;5.60;;;;;;;27.02;26.87;100612.41;5060143;28;20498;-47
2021/10/05 07:58:02;;;;;;;10.05;6.40;;;;;;;27.09;27.38;100601.94;5058387;28;20031;-49
2021/10/05 08:00:27;;;;;;;17.27;6.70;;;;;;;27.46;26.70;100603.91;5059520;28;20025;-48
2021/10/05 08:02:53;;;;;;;13.13;5.82;;;;;;;27.53;26.77;100602.72;5058510;28;20115;-47
2021/10/05 08:05:20;;;;;;;14.60;7.28;;;;;;;27.83;26.53;100596.75;5058970;28;20017;-49
2021/10/05 08:07:46;;;;;;;12.45;7.78;;;;;;;27.72;26.35;100602.69;5056953;28;20050;-50
2021/10/05 08:10:12;;;;;;;16.30;6.82;;;;;;;26.64;27.93;100599.47;5049575;28;20028;-48
2021/10/05 08:12:38;;;;;;;15.20;7.78;;;;;;;26.84;27.70;100587.50;5048259;28;20029;-47
2021/10/05 08:15:03;;;;;;;11.60;6.82;;;;;;;26.48;28.08;100597.97;5050093;28;20048;-47
2021/10/05 08:17:29;;;;;;;13.30;7.22;;;;;;;26.37;27.75;100610.09;5050035;28;20041;-50
2021/10/05 08:19:54;;;;;;;12.10;7.35;;;;;;;26.72;27.82;100598.84;5049515;28;20086;-50
2021/10/05 08:22:20;;;;;;;11.75;6.82;;;;;;;27.05;27.50;100600.91;5049399;28;20025;-49
2021/10/05 08:24:46;;;;;;;13.68;6.70;;;;;;;27.17;27.63;100598.56;5049022;28;20021;-48
2021/10/05 08:27:11;;;;;;;12.25;7.13;;;;;;;26.75;27.96;100608.38;5048520;28;20041;-48
2021/10/05 08:29:37;;;;;;;12.40;6.95;;;;;;;25.65;29.57;100600.59;5049358;28;20492;-48
2021/10/05 08:32:04;;;;;;;12.73;6.63;;;;;;;25.81;29.64;100600.47;5049778;28;20017;-49
2021/10/05 08:34:30;;;;;;;12.63;6.28;;;;;;;25.28;30.25;100601.91;5048134;28;20135;-47
2021/10/05 08:36:55;;;;;;;17.27;9.38;;;;;;;24.75;30.88;100601.56;5049654;28;20051;-50
2021/10/05 08:39:21;;;;;;;10.18;6.45;;;;;;;24.52;31.72;100603.00;5049487;28;20036;-47
2021/10/05 08:41:46;;;;;;;13.68;6.45;;;;;;;24.54;31.31;100590.78;5048141;28;20487;-47
2021/10/05 08:44:12;;;;;;;11.35;6.90;;;;;;;24.63;31.52;100598.34;5049359;28;20052;-48
2021/10/05 08:46:38;;;;;;;12.95;6.60;;;;;;;25.52;30.34;100595.78;5048980;28;20052;-48
2021/10/05 08:49:05;;;;;;;12.93;6.30;;;;;;;24.09;32.01;100580.75;5049395;28;20033;-48
2021/10/05 08:51:30;;;;;;;11.00;6.50;;;;;;;24.02;32.47;100594.63;5048131;28;20033;-48
2021/10/05 08:53:56;;;;;;;9.77;6.13;;;;;;;24.38;32.01;100595.38;5049320;28;20021;-37
2021/10/05 08:56:21;;;;;;;10.65;5.90;;;;;;;23.76;32.50;100593.75;5049628;28;20111;-38
2021/10/05 08:58:47;;;;;;;8.63;5.40;;;;;;;23.34;33.28;100589.34;5049706;28;20033;-37
2021/10/05 09:01:14;;;;;;;8.32;5.53;;;;;;;23.74;32.84;100587.78;5050451;28;20025;-38
2021/10/05 09:03:52;;;;;;;14.48;5.20;;;;;;;23.50;33.26;100584.78;5048839;28;20049;-37
2021/10/05 09:06:18;;;;;;;11.98;4.88;;;;;;;23.53;33.66;100581.50;5047208;28;20139;-49
2021/10/05 09:08:44;;;;;;;8.63;5.13;;;;;;;23.64;33.38;100583.16;5049523;28;20025;-48
2021/10/05 09:11:10;;;;;;;11.98;5.38;;;;;;;23.25;34.20;100580.94;5049142;28;20032;-48
2021/10/05 09:13:39;;;;;;;20.42;13.48;;;;;;;23.48;33.99;100576.91;5049675;28;20032;-49
2021/10/05 09:16:17;;;;;;;9.73;5.00;;;;;;;23.09;34.71;100576.53;5049506;28;20040;-47
2021/10/05 09:18:54;;;;;;;7.18;4.78;;;;;;;21.83;37.33;100575.19;5049447;28;20092;-48
2021/10/05 09:21:19;;;;;;;7.28;4.47;;;;;;;21.94;36.96;100578.81;5048989;28;20477;-47
2021/10/05 09:23:58;;;;;;;6.53;4.63;;;;;;;21.94;36.41;100580.72;5048191;28;20029;-47
2021/10/05 09:26:40;;;;;;;9.90;5.03;;;;;;;22.53;35.89;100575.19;5048709;28;20048;-49
2021/10/05 09:29:12;;;;;;;7.15;4.35;;;;;;;22.80;35.63;100563.38;5046715;28;20378;-50
2021/10/05 09:31:49;;;;;;;9.85;5.07;;;;;;;22.83;34.83;100584.56;5049272;28;20123;-48
2021/10/05 09:34:14;;;;;;;7.55;4.72;;;;;;;22.14;36.49;100583.59;5048111;28;20029;-51
2021/10/05 09:36:40;;;;;;;11.88;4.85;;;;;;;21.79;37.43;100584.09;5047934;28;20025;-50
2021/10/05 09:39:05;;;;;;;11.00;5.20;;;;;;;21.46;38.21;100588.69;5048825;28;20099;-50
2021/10/05 09:41:31;;;;;;;9.32;4.90;;;;;;;20.97;38.39;100585.94;5049166;28;20039;-48
2021/10/05 09:44:01;;;;;;;8.30;4.43;;;;;;;21.13;37.76;100589.63;5049358;28;20021;-49
2021/10/05 09:46:26;;;;;;;8.57;5.25;;;;;;;21.97;37.14;100594.56;5047761;28;20024;-48
2021/10/05 09:49:07;;;;;;;10.73;5.18;;;;;;;22.23;36.13;100582.00;5047416;28;20570;-48
2021/10/05 09:51:33;;;;;;;15.63;7.07;;;;;;;22.14;36.72;100575.47;5046958;28;20135;-49
2021/10/05 09:53:59;;;;;;;8.30;5.07;;;;;;;22.13;36.22;100578.41;5045277;28;20086;-50
2021/10/05 09:56:27;;;;;;;8.45;5.28;;;;;;;22.70;35.14;100574.19;5046090;28;20032;-47
2021/10/05 09:58:53;;;;;;;8.07;5.78;;;;;;;23.34;34.73;100567.63;5049724;28;20112;-47
2021/10/05 10:01:19;;;;;;;7.57;5.03;;;;;;;23.03;34.76;100575.69;5049983;28;20343;-47
2021/10/05 10:03:46;;;;;;;8.15;5.40;;;;;;;22.97;34.69;100572.13;5049789;28;20029;-47
2021/10/05 10:06:11;;;;;;;7.75;5.10;;;;;;;22.95;35.14;100571.56;5050580;28;20506;-47
2021/10/05 10:08:37;;;;;;;8.10;4.70;;;;;;;23.01;34.99;100567.78;5050042;28;20029;-48
2021/10/05 10:11:02;;;;;;;7.07;4.90;;;;;;;21.93;36.95;100565.53;5051509;28;20452;-46
2021/10/05 10:13:28;;;;;;;9.25;5.20;;;;;;;22.26;37.19;100559.03;5051940;28;20017;-47
2021/10/05 10:15:55;;;;;;;7.40;5.05;;;;;;;22.63;35.67;100558.94;5050664;28;20040;-48
2021/10/05 10:18:24;;;;;;;7.15;4.60;;;;;;;22.42;36.25;100559.94;5050491;28;20164;-47
2021/10/05 10:21:10;;;;;;;10.13;4.60;;;;;;;22.83;35.33;100569.09;5052029;28;20403;-48
2021/10/05 10:23:36;;;;;;;12.13;4.40;;;;;;;23.33;34.50;100557.88;5031515;28;20430;-48
2021/10/05 10:26:06;;;;;;;11.93;7.22;;;;;;;23.45;34.27;100558.41;5031185;28;20022;-48
2021/10/05 10:28:39;;;;;;;7.95;5.07;;;;;;;24.40;32.50;100554.31;5031575;28;20313;-48
2021/10/05 10:31:07;;;;;;;8.30;4.18;;;;;;;24.70;31.58;100564.31;5031666;28;20057;-48
2021/10/05 10:33:44;;;;;;;8.38;4.38;;;;;;;23.83;32.86;100559.00;5031912;28;20021;-48
2021/10/05 10:36:10;;;;;;;7.28;3.85;;;;;;;23.49;33.33;100558.69;5031735;28;20047;-48
2021/10/05 10:38:36;;;;;;;6.00;3.60;;;;;;;23.61;33.49;100545.69;5032112;28;20041;-48
2021/10/05 10:41:13;;;;;;;8.07;3.50;;;;;;;23.57;33.56;100545.41;5030080;28;20044;-47
2021/10/05 10:43:38;;;;;;;7.53;3.58;;;;;;;23.61;33.57;100549.22;5031650;28;20040;-48
2021/10/05 10:46:04;;;;;;;9.13;3.63;;;;;;;23.77;33.57;100550.00;5046289;28;20509;-47
2021/10/05 10:48:34;;;;;;;6.85;3.40;;;;;;;23.07;34.64;100543.41;5031022;28;20073;-46
2021/10/05 10:51:29;;;;;;;8.88;3.55;;;;;;;23.18;35.02;100536.94;5031526;28;20481;-47
2021/10/05 10:54:00;;;;;;;7.35;3.30;;;;;;;23.51;32.93;100529.38;5031101;28;20017;-47
2021/10/05 10:56:34;;;;;;;5.10;3.13;;;;;;;23.58;32.88;100535.34;5031333;28;20174;-48
2021/10/05 10:59:01;;;;;;;3.92;3.03;;;;;;;22.57;34.97;100526.66;5030201;28;20029;-49
2021/10/05 11:01:37;;;;;;;5.10;3.38;;;;;;;22.92;34.42;100530.56;5031594;28;20051;-51
2021/10/05 11:04:03;;;;;;;10.50;3.40;;;;;;;23.16;34.14;100522.81;5031569;28;20448;-50
2021/10/05 11:06:29;;;;;;;8.32;3.30;;;;;;;23.48;33.69;100516.34;5048991;28;20064;-48
2021/10/05 11:08:56;;;;;;;5.57;2.90;;;;;;;23.70;33.18;100533.16;5049212;28;20063;-48
2021/10/05 11:11:31;;;;;;;4.95;3.08;;;;;;;22.77;34.40;100515.06;5051040;28;20032;-48